Time;durP1;ratioP1;P1;durP2;ratioP2;P2;SDS_P1;SDS_P2;PMS_P1;PMS_P2;Temp;Humidity;BMP_temperature;BMP_pressure;BME280_temperature;BME280_humidity;BME280_pressure;Samples;Min_cycle;Max_cycle;Signal;HPM_P1;HPM_P2
2023/03/14 00:01:32;;;;;;;3.30;1.20;;;;;10.70;98572.00;;;;9708043;30;20281;-77
2023/03/14 00:06:34;;;;;;;3.13;1.17;;;;;10.60;98567.00;;;;9691974;30;20207;-77
2023/03/14 00:11:36;;;;;;;9.27;1.40;;;;;10.50;98581.00;;;;9706320;30;20195;-77
2023/03/14 00:16:39;;;;;;;11.00;1.67;;;;;10.50;98582.00;;;;9701752;30;20207;-77
2023/03/14 00:21:41;;;;;;;4.83;1.20;;;;;10.40;98594.00;;;;9715669;30;20292;-77
2023/03/14 00:26:43;;;;;;;4.70;1.47;;;;;10.40;98582.00;;;;9712117;30;20759;-77
2023/03/14 00:31:45;;;;;;;6.47;1.50;;;;;10.40;98585.00;;;;9721457;30;20242;-77
2023/03/14 00:36:47;;;;;;;7.97;1.50;;;;;10.40;98583.00;;;;9705185;30;20191;-77
2023/03/14 00:41:49;;;;;;;11.50;1.67;;;;;10.40;98588.00;;;;9705505;30;20223;-77
2023/03/14 00:46:51;;;;;;;5.63;1.83;;;;;10.40;98574.00;;;;9704334;30;20273;-77
2023/03/14 00:51:53;;;;;;;9.97;1.83;;;;;10.30;98576.00;;;;9733584;30;20206;-78
2023/03/14 00:56:55;;;;;;;10.27;1.70;;;;;10.30;98577.00;;;;9747268;30;20285;-77
2023/03/14 01:01:57;;;;;;;9.47;1.80;;;;;10.30;98568.00;;;;9732028;30;20289;-77
2023/03/14 01:06:59;;;;;;;11.57;2.10;;;;;10.40;98562.00;;;;9761460;30;20276;-77
2023/03/14 01:12:01;;;;;;;5.87;1.47;;;;;10.30;98564.00;;;;9725554;30;20839;-77
2023/03/14 01:17:03;;;;;;;7.47;1.60;;;;;10.30;98546.00;;;;9745762;30;20202;-77
2023/03/14 01:22:05;;;;;;;7.93;2.03;;;;;10.30;98526.00;;;;9716385;30;20222;-77
2023/03/14 01:27:07;;;;;;;8.87;2.07;;;;;10.30;98535.00;;;;9707641;30;20218;-77
2023/03/14 01:32:10;;;;;;;9.20;2.33;;;;;10.30;98519.00;;;;9721963;30;20201;-77
2023/03/14 01:37:12;;;;;;;9.57;2.10;;;;;10.20;98510.00;;;;9714702;30;20256;-77
2023/03/14 01:42:16;;;;;;;6.97;2.10;;;;;10.20;98521.00;;;;9718435;30;20213;-77
2023/03/14 01:47:18;;;;;;;7.30;1.67;;;;;10.10;98501.00;;;;9763810;30;20229;-77
2023/03/14 01:52:44;;;;;;;7.07;1.50;;;;;10.00;98502.00;;;;9714347;30;20202;-77
2023/03/14 01:57:50;;;;;;;2.77;0.60;;;;;10.00;98511.00;;;;9729004;30;20206;-77
2023/03/14 02:03:01;;;;;;;7.23;1.60;;;;;10.00;98508.00;;;;9734289;30;20250;-78
2023/03/14 02:08:08;;;;;;;4.67;1.07;;;;;10.00;98503.00;;;;9736255;30;20206;-78
2023/03/14 02:13:19;;;;;;;3.30;1.00;;;;;10.00;98484.00;;;;9728059;30;20898;-78
2023/03/14 02:18:30;;;;;;;4.87;0.80;;;;;10.10;98480.00;;;;9752528;30;20210;-78
2023/03/14 02:24:14;;;;;;;1.70;0.57;;;;;9.90;98487.00;;;;9751427;30;20297;-78
2023/03/14 02:29:20;;;;;;;5.33;1.30;;;;;9.60;98489.00;;;;9714229;30;20203;-77
2023/03/14 02:34:25;;;;;;;2.23;0.80;;;;;9.40;98501.00;;;;9728085;30;20213;-77
2023/03/14 02:39:41;;;;;;;2.20;0.87;;;;;9.20;98499.00;;;;9743173;30;20213;-77
2023/03/14 02:44:50;;;;;;;2.50;0.70;;;;;9.00;98506.00;;;;9714789;30;20288;-77
2023/03/14 02:50:00;;;;;;;4.00;1.13;;;;;9.00;98509.00;;;;9743034;30;20214;-78
2023/03/14 02:55:03;;;;;;;2.67;0.97;;;;;9.10;98507.00;;;;9701322;30;20620;-77
2023/03/14 03:00:08;;;;;;;3.80;0.97;;;;;9.10;98499.00;;;;9741153;30;20260;-77
2023/03/14 03:05:12;;;;;;;3.10;1.30;;;;;9.00;98490.00;;;;9726894;30;20217;-77
2023/03/14 03:10:14;;;;;;;6.30;1.50;;;;;8.90;98471.00;;;;9740271;30;20198;-77
2023/03/14 03:15:16;;;;;;;5.80;1.60;;;;;9.00;98479.00;;;;9731169;30;20202;-77
2023/03/14 03:20:18;;;;;;;9.10;2.10;;;;;9.00;98469.00;;;;9738822;30;20687;-77
2023/03/14 03:25:21;;;;;;;6.27;1.87;;;;;9.10;98472.00;;;;9725167;30;20682;-77
2023/03/14 03:30:25;;;;;;;6.80;1.60;;;;;9.10;98462.00;;;;9711918;30;20652;-77
2023/03/14 03:35:27;;;;;;;5.57;1.57;;;;;9.20;98455.00;;;;9690703;30;20210;-77
2023/03/14 03:40:31;;;;;;;5.97;1.87;;;;;9.20;98462.00;;;;9705601;30;20277;-77
2023/03/14 03:45:33;;;;;;;7.40;2.33;;;;;9.30;98456.00;;;;9746454;30;20234;-77
2023/03/14 03:50:35;;;;;;;7.90;2.03;;;;;9.30;98454.00;;;;9732916;30;20202;-77
2023/03/14 03:55:42;;;;;;;7.37;2.10;;;;;9.30;98439.00;;;;9755132;30;20204;-77
2023/03/14 04:00:45;;;;;;;5.87;1.77;;;;;9.30;98430.00;;;;9704545;30;20214;-77
2023/03/14 04:05:58;;;;;;;6.67;2.40;;;;;9.30;98430.00;;;;9705123;30;20203;-77
2023/03/14 04:11:01;;;;;;;8.77;2.40;;;;;9.30;98439.00;;;;9722567;30;21124;-77
2023/03/14 04:16:24;;;;;;;6.57;2.33;;;;;9.30;98445.00;;;;9714208;30;20579;-78
2023/03/14 04:21:32;;;;;;;6.27;2.10;;;;;9.40;98438.00;;;;9709389;30;20749;-77
2023/03/14 04:26:34;;;;;;;7.10;2.40;;;;;9.50;98435.00;;;;9748113;30;20217;-77
2023/03/14 04:31:36;;;;;;;5.70;2.47;;;;;9.60;98438.00;;;;9727968;30;20264;-78
2023/03/14 04:36:38;;;;;;;4.73;2.73;;;;;9.60;98429.00;;;;9726608;30;20199;-77
2023/03/14 04:41:46;;;;;;;6.43;2.97;;;;;9.70;98433.00;;;;9740684;30;20226;-78
2023/03/14 04:46:49;;;;;;;7.53;3.27;;;;;9.70;98431.00;;;;9742108;30;20297;-78
2023/03/14 04:51:51;;;;;;;6.03;3.00;;;;;9.80;98442.00;;;;9725875;30;20207;-77
2023/03/14 04:56:55;;;;;;;16.93;4.00;;;;;9.70;98435.00;;;;9724805;30;20245;-77
2023/03/14 05:01:57;;;;;;;8.33;3.53;;;;;9.70;98420.00;;;;9745374;30;20264;-77
2023/03/14 05:07:16;;;;;;;5.67;3.50;;;;;9.60;98421.00;;;;9703809;30;20211;-78
2023/03/14 05:12:51;;;;;;;5.23;3.03;;;;;9.50;98413.00;;;;9726863;30;20217;-78
2023/03/14 05:18:17;;;;;;;7.03;3.00;;;;;9.50;98403.00;;;;9770852;30;20197;-78
2023/03/14 05:23:37;;;;;;;13.23;4.07;;;;;9.50;98404.00;;;;9752483;30;20241;-78
2023/03/14 05:28:48;;;;;;;4.80;3.20;;;;;9.50;98407.00;;;;9718684;30;20214;-77
2023/03/14 05:34:08;;;;;;;5.20;2.57;;;;;9.50;98403.00;;;;9732821;30;20667;-78
2023/03/14 05:39:30;;;;;;;6.70;2.47;;;;;9.60;98408.00;;;;9712460;30;20207;-78
2023/03/14 05:44:55;;;;;;;3.77;1.90;;;;;9.60;98401.00;;;;9712152;30;20257;-78
2023/03/14 05:50:18;;;;;;;4.00;1.87;;;;;9.60;98402.00;;;;9742453;30;20210;-78
2023/03/14 05:55:30;;;;;;;6.20;2.30;;;;;9.60;98409.00;;;;9733785;30;20257;-78
2023/03/14 06:00:51;;;;;;;5.40;3.23;;;;;9.70;98417.00;;;;9709748;30;20578;-77
2023/03/14 06:06:07;;;;;;;6.40;3.20;;;;;9.70;98418.00;;;;9716143;30;20206;-77
2023/03/14 06:11:09;;;;;;;5.50;3.03;;;;;9.70;98414.00;;;;9741591;30;20248;-77
2023/03/14 06:16:12;;;;;;;5.37;2.87;;;;;9.70;98425.00;;;;9750729;30;20458;-77
2023/03/14 06:21:15;;;;;;;3.57;2.70;;;;;9.70;98430.00;;;;9740853;30;20219;-77
2023/03/14 06:26:21;;;;;;;5.43;3.03;;;;;9.90;98427.00;;;;9711975;30;20552;-77
2023/03/14 06:31:23;;;;;;;4.43;2.77;;;;;9.80;98421.00;;;;9743115;30;20252;-77
2023/03/14 06:36:30;;;;;;;7.03;2.97;;;;;9.60;98442.00;;;;9742853;30;20214;-78
2023/03/14 06:41:33;;;;;;;3.40;2.50;;;;;9.60;98452.00;;;;9744382;30;20244;-78
2023/03/14 06:46:36;;;;;;;11.80;5.73;;;;;9.60;98460.00;;;;9749880;30;20241;-78
2023/03/14 06:51:38;;;;;;;12.70;5.87;;;;;9.60;98523.00;;;;9734239;30;20609;-78
2023/03/14 06:56:43;;;;;;;2.83;1.60;;;;;9.10;98566.00;;;;9748817;30;20274;-78
2023/03/14 07:01:45;;;;;;;0.70;0.70;;;;;8.30;98611.00;;;;9732709;30;20249;-78
2023/03/14 07:06:47;;;;;;;1.03;0.50;;;;;7.80;98635.00;;;;9731006;30;20221;-78
2023/03/14 07:11:49;;;;;;;0.80;0.80;;;;;7.50;98637.00;;;;9743830;30;20191;-78
2023/03/14 07:16:52;;;;;;;1.37;0.80;;;;;7.20;98656.00;;;;9744993;30;20210;-78
2023/03/14 07:21:55;;;;;;;2.17;0.80;;;;;6.90;98687.00;;;;9728831;30;20310;-79
2023/03/14 07:27:00;;;;;;;1.67;1.10;;;;;6.70;98719.00;;;;9711400;30;20265;-78
2023/03/14 07:32:03;;;;;;;3.47;2.00;;;;;6.80;98757.00;;;;9735185;30;20206;-78
2023/03/14 07:37:05;;;;;;;4.93;2.23;;;;;6.80;98767.00;;;;9740158;30;20217;-78
2023/03/14 07:42:07;;;;;;;5.00;2.97;;;;;6.90;98778.00;;;;9727153;30;20215;-78
2023/03/14 07:47:33;;;;;;;4.17;2.67;;;;;6.80;98804.00;;;;9725331;30;20309;-79
2023/03/14 07:52:35;;;;;;;6.33;3.37;;;;;7.00;98814.00;;;;9740800;30;20210;-79
2023/03/14 07:57:37;;;;;;;6.60;3.83;;;;;7.40;98828.00;;;;9750768;30;20683;-78
2023/03/14 08:02:39;;;;;;;5.93;3.03;;;;;7.40;98824.00;;;;9741319;30;20222;-78
2023/03/14 08:07:40;;;;;;;6.43;3.87;;;;;7.50;98851.00;;;;9753878;30;20198;-79
2023/03/14 08:12:42;;;;;;;4.10;3.37;;;;;7.70;98863.00;;;;9761643;30;20261;-78
2023/03/14 08:17:45;;;;;;;11.23;4.43;;;;;7.80;98887.00;;;;9737887;30;20245;-79
2023/03/14 08:22:47;;;;;;;5.57;2.80;;;;;7.70;98900.00;;;;9717981;30;20223;-78
2023/03/14 08:27:49;;;;;;;3.33;2.97;;;;;7.40;98928.00;;;;9736462;30;20202;-78
2023/03/14 08:32:51;;;;;;;3.03;2.23;;;;;7.50;98928.00;;;;9704577;30;20674;-78
2023/03/14 08:37:53;;;;;;;6.30;3.40;;;;;7.40;98966.00;;;;9733851;30;20230;-78
2023/03/14 08:42:55;;;;;;;9.23;3.93;;;;;7.60;98986.00;;;;9722236;30;20233;-78
2023/03/14 08:47:57;;;;;;;2.73;2.00;;;;;7.40;99002.00;;;;9739090;30;20210;-79
2023/03/14 08:53:00;;;;;;;4.07;2.57;;;;;7.30;99008.00;;;;9754947;30;20750;-78
2023/03/14 08:58:02;;;;;;;4.90;3.53;;;;;7.80;99028.00;;;;9704392;30;20203;-78
2023/03/14 09:03:04;;;;;;;6.67;3.57;;;;;8.10;99041.00;;;;9717160;30;20310;-78
2023/03/14 09:08:06;;;;;;;6.07;2.77;;;;;8.30;99053.00;;;;9705860;30;20218;-78
2023/03/14 09:13:08;;;;;;;3.80;2.07;;;;;8.10;99082.00;;;;9732797;30;20190;-78
2023/03/14 09:18:10;;;;;;;7.07;3.17;;;;;8.10;99083.00;;;;9754029;30;20230;-78
2023/03/14 09:23:12;;;;;;;3.27;1.93;;;;;7.70;99120.00;;;;9725481;30;20231;-78
2023/03/14 09:28:14;;;;;;;2.03;1.83;;;;;7.40;99141.00;;;;9702291;30;20208;-79
2023/03/14 09:33:17;;;;;;;7.33;3.00;;;;;7.70;99159.00;;;;9716605;30;20203;-79
2023/03/14 09:38:20;;;;;;;7.23;3.10;;;;;7.90;99170.00;;;;9747858;30;20209;-78
2023/03/14 09:43:24;;;;;;;4.20;3.33;;;;;7.10;99189.00;;;;9745695;30;20236;-78
2023/03/14 09:48:30;;;;;;;6.27;3.50;;;;;6.90;99212.00;;;;9735924;30;20210;-79
2023/03/14 09:53:45;;;;;;;8.77;3.10;;;;;7.20;99228.00;;;;9752443;30;20289;-78
2023/03/14 09:58:54;;;;;;;10.70;3.37;;;;;8.10;99248.00;;;;9720937;30;20566;-78
2023/03/14 10:04:01;;;;;;;8.37;3.60;;;;;9.00;99248.00;;;;9751377;30;20294;-78
2023/03/14 10:09:04;;;;;;;5.40;2.80;;;;;8.30;99263.00;;;;9738051;30;20260;-77
2023/03/14 10:14:16;;;;;;;6.37;3.17;;;;;7.80;99282.00;;;;9685200;30;20210;-77
2023/03/14 10:19:18;;;;;;;6.00;2.37;;;;;7.30;99305.00;;;;9725331;30;20206;-77
2023/03/14 10:24:31;;;;;;;2.10;1.57;;;;;6.90;99341.00;;;;9716506;30;20214;-77
2023/03/14 10:29:34;;;;;;;6.53;2.30;;;;;6.60;99367.00;;;;9718044;30;20220;-77
2023/03/14 10:34:38;;;;;;;6.53;2.00;;;;;6.30;99392.00;;;;9735898;30;20204;-77
2023/03/14 10:39:48;;;;;;;1.97;1.03;;;;;6.00;99414.00;;;;9709535;30;20210;-77
2023/03/14 10:44:56;;;;;;;2.87;1.00;;;;;6.30;99442.00;;;;9732879;30;20226;-77
2023/03/14 10:50:23;;;;;;;3.40;1.10;;;;;6.50;99441.00;;;;9746540;30;20300;-78
2023/03/14 10:55:28;;;;;;;3.57;1.47;;;;;6.20;99442.00;;;;9692729;30;20258;-77
2023/03/14 11:00:33;;;;;;;1.37;0.80;;;;;5.90;99478.00;;;;9733931;30;20257;-77
2023/03/14 11:05:45;;;;;;;1.80;1.00;;;;;6.00;99500.00;;;;9711146;30;20757;-78
2023/03/14 11:10:54;;;;;;;1.57;1.10;;;;;5.90;99508.00;;;;9704409;30;20199;-77
2023/03/14 11:16:07;;;;;;;1.33;1.23;;;;;6.00;99527.00;;;;9709378;30;20206;-77
2023/03/14 11:21:15;;;;;;;1.73;0.83;;;;;6.30;99534.00;;;;9692834;30;20672;-77
2023/03/14 11:26:51;;;;;;;0.77;0.40;;;;;6.20;99552.00;;;;9736293;30;20230;-78
2023/03/14 11:31:59;;;;;;;0.70;0.60;;;;;6.50;99572.00;;;;9726294;30;20213;-77
2023/03/14 11:37:11;;;;;;;2.07;1.20;;;;;6.50;99570.00;;;;9704333;30;20198;-78
2023/03/14 11:42:17;;;;;;;1.90;0.73;;;;;6.50;99591.00;;;;9726930;30;20305;-78
2023/03/14 11:47:34;;;;;;;2.60;0.70;;;;;6.90;99592.00;;;;9702357;30;20230;-77
2023/03/14 11:52:44;;;;;;;4.73;0.80;;;;;7.50;99598.00;;;;9731427;30;20196;-78
2023/03/14 11:57:49;;;;;;;2.33;0.90;;;;;8.10;99600.00;;;;9743214;30;20208;-77
2023/03/14 12:03:25;;;;;;;2.10;1.30;;;;;8.60;99605.00;;;;9726520;30;20219;-78
2023/03/14 12:08:47;;;;;;;2.67;1.10;;;;;8.70;99616.00;;;;9713530;30;20264;-79
2023/03/14 12:13:52;;;;;;;2.27;1.03;;;;;8.50;99636.00;;;;9720379;30;20724;-77
2023/03/14 12:18:54;;;;;;;1.50;1.20;;;;;7.40;99657.00;;;;9697638;30;20677;-77
2023/03/14 12:23:57;;;;;;;2.57;1.70;;;;;7.00;99680.00;;;;9690159;30;20280;-78
2023/03/14 12:29:00;;;;;;;2.53;1.40;;;;;6.70;99691.00;;;;9721408;30;20859;-78
2023/03/14 12:34:04;;;;;;;3.37;1.43;;;;;6.10;99719.00;;;;9718362;30;20211;-77
2023/03/14 12:39:34;;;;;;;5.40;1.87;;;;;5.90;99724.00;;;;9725414;30;20301;-78
2023/03/14 12:44:50;;;;;;;8.27;1.43;;;;;6.40;99724.00;;;;9753994;30;20308;-78
2023/03/14 12:49:57;;;;;;;6.93;1.40;;;;;6.70;99728.00;;;;9724844;30;20576;-78
2023/03/14 12:55:28;;;;;;;5.70;2.03;;;;;7.20;99727.00;;;;9738398;30;20339;-78
2023/03/14 13:00:34;;;;;;;8.10;3.10;;;;;7.60;99727.00;;;;9737501;30;20214;-78
2023/03/14 13:05:36;;;;;;;11.07;5.73;;;;;7.80;99739.00;;;;9682129;30;20714;-78
2023/03/14 13:10:42;;;;;;;16.13;8.97;;;;;7.20;99753.00;;;;9726286;30;20214;-78
2023/03/14 13:15:46;;;;;;;8.03;3.90;;;;;7.00;99755.00;;;;9736377;30;20202;-78
2023/03/14 13:20:55;;;;;;;6.60;3.57;;;;;6.50;99804.00;;;;9731314;30;20202;-79
2023/03/14 13:25:59;;;;;;;5.67;1.63;;;;;6.10;99803.00;;;;9703235;30;20239;-78
2023/03/14 13:31:03;;;;;;;15.50;3.30;;;;;6.20;99807.00;;;;9727021;30;20210;-78
2023/03/14 13:36:05;;;;;;;13.33;2.97;;;;;6.30;99823.00;;;;9735349;30;20790;-78
2023/03/14 13:41:08;;;;;;;9.03;2.67;;;;;6.30;99832.00;;;;9723157;30;20578;-77
2023/03/14 13:46:19;;;;;;;11.53;2.93;;;;;6.40;99845.00;;;;9709228;30;20238;-78
2023/03/14 13:51:22;;;;;;;18.23;4.03;;;;;6.80;99853.00;;;;9747486;30;20210;-77
2023/03/14 13:56:31;;;;;;;19.47;3.33;;;;;7.00;99868.00;;;;9702622;30;20234;-78
2023/03/14 14:01:37;;;;;;;26.53;3.97;;;;;7.00;99881.00;;;;9736971;30;20206;-78
2023/03/14 14:06:46;;;;;;;18.03;3.53;;;;;7.00;99907.00;;;;9727559;30;20230;-78
2023/03/14 14:12:16;;;;;;;21.47;3.23;;;;;7.40;99898.00;;;;9707459;30;20747;-78
2023/03/14 14:17:24;;;;;;;23.03;3.97;;;;;7.70;99921.00;;;;9723922;30;20229;-78
2023/03/14 14:22:27;;;;;;;23.37;3.53;;;;;7.90;99931.00;;;;9742714;30;20261;-77
2023/03/14 14:27:35;;;;;;;13.60;2.50;;;;;8.00;99945.00;;;;9730607;30;20217;-77
2023/03/14 14:32:39;;;;;;;16.77;2.03;;;;;7.70;99963.00;;;;9700058;30;20218;-76
2023/03/14 14:37:43;;;;;;;30.23;2.23;;;;;7.00;99965.00;;;;9707956;30;20215;-77
2023/03/14 14:42:46;;;;;;;9.60;2.00;;;;;6.60;99989.00;;;;9737320;30;20230;-78
2023/03/14 14:47:58;;;;;;;5.80;0.80;;;;;6.20;100023.00;;;;9715123;30;20671;-78
2023/03/14 14:53:20;;;;;;;0.43;0.43;;;;;5.70;100077.00;;;;9716507;30;20199;-77
2023/03/14 14:58:27;;;;;;;2.67;0.60;;;;;5.40;100098.00;;;;9714928;30;20655;-79
2023/03/14 15:03:31;;;;;;;2.30;0.50;;;;;5.30;100109.00;;;;9716566;30;20215;-79
2023/03/14 15:08:33;;;;;;;2.10;0.70;;;;;5.50;100104.00;;;;9723300;30;20242;-78
2023/03/14 15:13:35;;;;;;;3.27;0.77;;;;;5.80;100092.00;;;;9666091;30;20266;-78
2023/03/14 15:18:38;;;;;;;1.63;0.60;;;;;6.00;100114.00;;;;9683918;30;20281;-77
2023/03/14 15:23:40;;;;;;;3.47;2.03;;;;;6.00;100113.00;;;;9682400;30;20290;-78
2023/03/14 15:28:42;;;;;;;6.10;2.57;;;;;6.00;100109.00;;;;9708206;30;20217;-78
2023/03/14 15:33:45;;;;;;;3.50;1.03;;;;;6.10;100113.00;;;;9718728;30;20220;-78
2023/03/14 15:38:47;;;;;;;6.13;1.17;;;;;6.10;100123.00;;;;9720125;30;20205;-78
2023/03/14 15:43:50;;;;;;;4.27;1.63;;;;;6.20;100127.00;;;;9738240;30;20239;-78
2023/03/14 15:48:53;;;;;;;6.97;1.00;;;;;6.10;100125.00;;;;9699624;30;20740;-78
2023/03/14 15:53:55;;;;;;;4.97;1.10;;;;;5.90;100144.00;;;;9742110;30;20206;-78
2023/03/14 15:58:56;;;;;;;4.27;1.00;;;;;5.90;100143.00;;;;9721487;30;20293;-78
2023/03/14 16:03:59;;;;;;;9.70;1.67;;;;;5.90;100155.00;;;;9733627;30;20232;-79
2023/03/14 16:09:01;;;;;;;6.70;1.40;;;;;5.80;100165.00;;;;9737967;30;20230;-78
2023/03/14 16:14:03;;;;;;;10.53;1.40;;;;;5.80;100167.00;;;;9741917;30;20257;-78
2023/03/14 16:19:06;;;;;;;7.63;1.80;;;;;5.70;100193.00;;;;9731968;30;20258;-78
2023/03/14 16:24:08;;;;;;;9.50;1.53;;;;;5.60;100203.00;;;;9699177;30;20355;-79
2023/03/14 16:29:10;;;;;;;10.20;1.90;;;;;5.60;100200.00;;;;9725029;30;20210;-78
2023/03/14 16:34:13;;;;;;;9.53;1.97;;;;;5.60;100219.00;;;;9718243;30;20208;-78
2023/03/14 16:39:15;;;;;;;8.93;1.93;;;;;5.60;100236.00;;;;9742648;30;20579;-79
2023/03/14 16:44:17;;;;;;;13.50;2.70;;;;;5.70;100233.00;;;;9737038;30;20226;-79
2023/03/14 16:49:19;;;;;;;13.60;1.90;;;;;5.70;100256.00;;;;9751888;30;20206;-79
2023/03/14 16:54:21;;;;;;;9.30;1.77;;;;;5.60;100267.00;;;;9703534;30;20571;-79
2023/03/14 16:59:24;;;;;;;11.37;1.93;;;;;5.60;100274.00;;;;9703828;30;20207;-79
2023/03/14 17:04:26;;;;;;;8.40;1.87;;;;;5.60;100288.00;;;;9722937;30;20214;-78
2023/03/14 17:09:30;;;;;;;10.43;2.20;;;;;5.50;100305.00;;;;9753047;30;20195;-79
2023/03/14 17:14:33;;;;;;;7.57;2.00;;;;;5.30;100311.00;;;;9767388;30;20221;-79
2023/03/14 17:19:35;;;;;;;10.03;2.23;;;;;5.20;100324.00;;;;9750111;30;20210;-79
2023/03/14 17:24:38;;;;;;;6.60;1.67;;;;;5.10;100339.00;;;;9751846;30;20230;-79
2023/03/14 17:29:40;;;;;;;15.63;2.43;;;;;4.90;100356.00;;;;9743511;30;20205;-79
2023/03/14 17:34:42;;;;;;;8.77;2.50;;;;;4.70;100364.00;;;;9735978;30;20229;-78
2023/03/14 17:39:44;;;;;;;10.87;1.80;;;;;4.70;100377.00;;;;9737490;30;20213;-79
2023/03/14 17:44:46;;;;;;;6.63;1.50;;;;;4.60;100384.00;;;;9730087;30;20235;-79
2023/03/14 17:49:48;;;;;;;11.23;2.27;;;;;4.30;100401.00;;;;9728370;30;20201;-79
2023/03/14 17:54:50;;;;;;;10.50;1.77;;;;;3.90;100418.00;;;;9736475;30;20199;-79
2023/03/14 17:59:52;;;;;;;8.97;1.80;;;;;3.70;100416.00;;;;9728412;30;20576;-78
2023/03/14 18:04:54;;;;;;;10.50;2.10;;;;;3.60;100430.00;;;;9722067;30;20599;-78
2023/03/14 18:09:56;;;;;;;14.60;2.47;;;;;3.50;100444.00;;;;9723048;30;20210;-78
2023/03/14 18:14:58;;;;;;;12.30;3.27;;;;;3.40;100451.00;;;;9753703;30;20195;-79
2023/03/14 18:20:00;;;;;;;13.73;2.67;;;;;3.40;100468.00;;;;9713850;30;20203;-78
2023/03/14 18:25:02;;;;;;;8.53;3.37;;;;;3.30;100477.00;;;;9735059;30;20703;-79
2023/03/14 18:30:05;;;;;;;14.67;4.17;;;;;3.20;100487.00;;;;9711958;30;20206;-78
2023/03/14 18:35:07;;;;;;;12.27;4.53;;;;;3.00;100503.00;;;;9735525;30;20198;-79
2023/03/14 18:40:12;;;;;;;14.60;4.13;;;;;2.90;100516.00;;;;9734807;30;20722;-78
2023/03/14 18:45:14;;;;;;;14.03;4.43;;;;;2.90;100522.00;;;;9739274;30;20284;-78
2023/03/14 18:50:17;;;;;;;16.30;3.93;;;;;2.90;100526.00;;;;9707436;30;20221;-78
2023/03/14 18:55:18;;;;;;;16.43;4.40;;;;;3.20;100545.00;;;;9720007;30;20204;-79
2023/03/14 19:00:21;;;;;;;8.17;3.47;;;;;3.50;100557.00;;;;9726980;30;20301;-79
2023/03/14 19:05:23;;;;;;;8.97;3.00;;;;;3.80;100586.00;;;;9699014;30;20207;-79
2023/03/14 19:10:25;;;;;;;10.57;2.60;;;;;3.80;100589.00;;;;9698083;30;20221;-79
2023/03/14 19:15:27;;;;;;;11.03;2.10;;;;;3.50;100594.00;;;;9772907;30;20635;-77
2023/03/14 19:20:29;;;;;;;12.43;2.10;;;;;3.20;100588.00;;;;9727667;30;20268;-78
2023/03/14 19:25:31;;;;;;;8.63;2.33;;;;;3.00;100577.00;;;;9703162;30;20218;-78
2023/03/14 19:30:33;;;;;;;8.20;2.33;;;;;2.70;100587.00;;;;9720051;30;20207;-78
2023/03/14 19:35:35;;;;;;;9.37;3.40;;;;;2.50;100595.00;;;;9734310;30;20210;-77
2023/03/14 19:40:39;;;;;;;15.47;2.67;;;;;2.30;100593.00;;;;9732910;30;20209;-78
2023/03/14 19:45:41;;;;;;;10.67;3.23;;;;;2.10;100602.00;;;;9732549;30;20262;-78
2023/03/14 19:50:43;;;;;;;9.73;2.80;;;;;2.10;100604.00;;;;9705296;30;20211;-78
2023/03/14 19:55:46;;;;;;;11.17;3.87;;;;;2.10;100616.00;;;;9739989;30;20202;-77
2023/03/14 20:00:48;;;;;;;6.97;3.30;;;;;2.10;100616.00;;;;9726770;30;20210;-78
2023/03/14 20:05:52;;;;;;;9.03;3.13;;;;;2.10;100618.00;;;;9726664;30;20291;-78
2023/03/14 20:10:54;;;;;;;9.30;4.17;;;;;2.10;100635.00;;;;9726545;30;20218;-77
2023/03/14 20:15:56;;;;;;;9.53;3.53;;;;;2.10;100624.00;;;;9746916;30;20199;-77
2023/03/14 20:20:59;;;;;;;12.57;4.37;;;;;2.30;100627.00;;;;9732786;30;20219;-78
2023/03/14 20:26:03;;;;;;;14.53;4.83;;;;;2.40;100634.00;;;;9746600;30;20231;-78
2023/03/14 20:31:06;;;;;;;16.33;4.40;;;;;2.60;100639.00;;;;9704369;30;20200;-77
2023/03/14 20:36:09;;;;;;;14.50;4.77;;;;;2.80;100635.00;;;;9723679;30;20206;-78
2023/03/14 20:41:11;;;;;;;14.20;4.70;;;;;3.00;100668.00;;;;9753331;30;20209;-78
2023/03/14 20:46:16;;;;;;;12.77;3.87;;;;;3.10;100658.00;;;;9725987;30;20227;-78
2023/03/14 20:51:18;;;;;;;21.13;4.23;;;;;3.00;100640.00;;;;9737708;30;20214;-78
2023/03/14 20:56:20;;;;;;;12.90;4.30;;;;;3.00;100658.00;;;;9737418;30;20547;-78
2023/03/14 21:01:22;;;;;;;17.53;4.33;;;;;3.00;100666.00;;;;9743920;30;20238;-78
2023/03/14 21:06:24;;;;;;;12.23;3.80;;;;;2.90;100655.00;;;;9735582;30;20346;-77
2023/03/14 21:11:27;;;;;;;12.07;4.27;;;;;2.90;100656.00;;;;9736986;30;20670;-78
2023/03/14 21:16:29;;;;;;;9.93;4.40;;;;;2.90;100651.00;;;;9716427;30;20580;-78
2023/03/14 21:21:32;;;;;;;10.00;4.50;;;;;2.80;100676.00;;;;9759112;30;20229;-78
2023/03/14 21:26:34;;;;;;;14.03;4.60;;;;;2.70;100677.00;;;;9766220;30;20230;-78
2023/03/14 21:31:37;;;;;;;10.20;3.80;;;;;2.60;100685.00;;;;9743958;30;20207;-78
2023/03/14 21:36:41;;;;;;;14.37;3.53;;;;;2.60;100683.00;;;;9718922;30;20218;-77
2023/03/14 21:41:44;;;;;;;13.03;3.50;;;;;2.50;100682.00;;;;9741928;30;20217;-78
2023/03/14 21:46:47;;;;;;;5.87;3.00;;;;;2.60;100684.00;;;;9716068;30;20253;-78
2023/03/14 21:51:51;;;;;;;7.10;2.40;;;;;2.60;100676.00;;;;9746246;30;20570;-77
2023/03/14 21:56:58;;;;;;;5.00;2.53;;;;;2.50;100679.00;;;;9718505;30;20210;-78
2023/03/14 22:02:01;;;;;;;5.87;2.30;;;;;2.50;100685.00;;;;9710616;30;20783;-77
2023/03/14 22:07:12;;;;;;;8.13;2.80;;;;;2.60;100714.00;;;;9745448;30;20242;-78
2023/03/14 22:12:18;;;;;;;6.67;2.60;;;;;2.70;100704.00;;;;9696970;30;20224;-77
2023/03/14 22:17:20;;;;;;;9.57;4.47;;;;;2.80;100697.00;;;;9732470;30;20217;-78
2023/03/14 22:22:22;;;;;;;8.67;3.90;;;;;2.90;100690.00;;;;9732189;30;20226;-78
2023/03/14 22:27:24;;;;;;;10.43;4.33;;;;;2.90;100702.00;;;;9745594;30;20229;-78
2023/03/14 22:32:26;;;;;;;8.93;3.97;;;;;3.00;100700.00;;;;9725734;30;20221;-78
2023/03/14 22:37:28;;;;;;;12.27;3.80;;;;;3.20;100700.00;;;;9716397;30;20625;-77
2023/03/14 22:42:30;;;;;;;19.40;4.23;;;;;3.30;100711.00;;;;9744676;30;20213;-78
2023/03/14 22:47:32;;;;;;;10.67;3.90;;;;;3.40;100715.00;;;;9708571;30;20234;-78
2023/03/14 22:52:34;;;;;;;9.47;4.93;;;;;3.50;100715.00;;;;9708812;30;20218;-78
2023/03/14 22:57:36;;;;;;;11.80;3.90;;;;;3.50;100723.00;;;;9745488;30;20210;-78
2023/03/14 23:02:39;;;;;;;9.63;3.00;;;;;3.60;100721.00;;;;9726099;30;20214;-77
2023/03/14 23:07:41;;;;;;;10.30;3.90;;;;;3.60;100719.00;;;;9724548;30;20226;-78
2023/03/14 23:12:46;;;;;;;8.63;3.83;;;;;3.60;100711.00;;;;9732524;30;20222;-77
2023/03/14 23:17:48;;;;;;;13.43;4.17;;;;;3.50;100706.00;;;;9759337;30;20191;-77
2023/03/14 23:22:50;;;;;;;12.47;3.43;;;;;3.60;100713.00;;;;9738265;30;20214;-77
2023/03/14 23:27:53;;;;;;;10.77;3.57;;;;;3.60;100707.00;;;;9727655;30;20238;-78
2023/03/14 23:32:55;;;;;;;9.10;3.90;;;;;3.60;100718.00;;;;9727329;30;20217;-77
2023/03/14 23:37:56;;;;;;;12.37;4.30;;;;;3.60;100735.00;;;;9740022;30;20464;-77
2023/03/14 23:42:58;;;;;;;11.40;4.60;;;;;3.50;100737.00;;;;9753573;30;20263;-77
2023/03/14 23:48:00;;;;;;;11.03;3.77;;;;;3.40;100740.00;;;;9741870;30;20572;-78
2023/03/14 23:53:02;;;;;;;5.03;3.47;;;;;2.90;100768.00;;;;9727728;30;20264;-78
2023/03/14 23:58:04;;;;;;;9.27;4.77;;;;;2.60;100743.00;;;;9723694;30;20725;-74
